Time;durP1;ratioP1;P1;durP2;ratioP2;P2;SDS_P1;SDS_P2;PMS_P1;PMS_P2;Temp;Humidity;BMP_temperature;BMP_pressure;BME280_temperature;BME280_humidity;BME280_pressure;Samples;Min_cycle;Max_cycle;Signal;HPM_P1;HPM_P2
2022/05/18 00:00:35;;;;;;;1.70;0.65;;;21.30;60.80;;;;;;5113453;28;20516;-72
2022/05/18 00:03:06;;;;;;;2.13;0.70;;;21.30;60.80;;;;;;5112260;28;20118;-72
2022/05/18 00:05:33;;;;;;;;;;;21.30;60.80;;;;;;5112379;28;20039;-72
2022/05/18 00:08:01;;;;;;;1.65;0.75;;;21.30;60.80;;;;;;5112251;28;19923;-72
2022/05/18 00:10:27;;;;;;;2.22;0.70;;;21.30;60.80;;;;;;5112766;28;20024;-69
2022/05/18 00:12:55;;;;;;;2.92;0.65;;;21.30;60.80;;;;;;5110928;28;20382;-72
2022/05/18 00:15:23;;;;;;;1.88;0.70;;;21.30;60.80;;;;;;5112918;28;20039;-74
2022/05/18 00:17:48;;;;;;;1.80;0.70;;;21.20;60.80;;;;;;5111778;28;20047;-73
2022/05/18 00:20:14;;;;;;;3.35;1.00;;;21.20;60.80;;;;;;5113017;28;20041;-72
2022/05/18 00:22:51;;;;;;;2.03;0.88;;;21.20;60.80;;;;;;5111614;28;20082;-72
2022/05/18 00:25:18;;;;;;;1.67;0.68;;;21.20;60.80;;;;;;5111646;28;20100;-73
2022/05/18 00:27:44;;;;;;;1.88;0.60;;;21.20;60.80;;;;;;5112000;28;20425;-73
2022/05/18 00:30:11;;;;;;;1.80;1.02;;;21.20;60.80;;;;;;5111289;28;20066;-68
2022/05/18 00:32:37;;;;;;;2.05;0.93;;;21.20;60.90;;;;;;5112497;28;20085;-73
2022/05/18 00:35:03;;;;;;;1.90;0.70;;;21.20;60.90;;;;;;5112500;28;20476;-68
2022/05/18 00:37:29;;;;;;;2.05;0.93;;;21.10;60.90;;;;;;5111219;28;20043;-73
2022/05/18 00:39:54;;;;;;;2.35;0.70;;;21.10;60.80;;;;;;5111324;28;20040;-73
2022/05/18 00:42:26;;;;;;;4.13;1.35;;;21.10;60.90;;;;;;5112794;28;20078;-74
2022/05/18 00:44:51;;;;;;;2.25;1.10;;;21.10;60.90;;;;;;5112573;28;20407;-72
2022/05/18 00:47:17;;;;;;;1.48;0.47;;;21.10;60.90;;;;;;5112878;28;20042;-72
2022/05/18 00:49:47;;;;;;;1.13;0.73;;;21.10;60.90;;;;;;5112174;28;20500;-73
2022/05/18 00:52:14;;;;;;;2.63;0.60;;;21.10;60.90;;;;;;5111207;28;20040;-72
2022/05/18 00:54:41;;;;;;;2.67;0.95;;;21.10;60.90;;;;;;5112410;28;20105;-68
2022/05/18 00:57:14;;;;;;;2.45;1.15;;;21.10;60.90;;;;;;5110890;28;20043;-73
2022/05/18 00:59:46;;;;;;;1.10;0.52;;;21.10;60.90;;;;;;5111064;28;20039;-72
2022/05/18 01:02:13;;;;;;;2.22;0.77;;;21.10;60.90;;;;;;5111081;28;20055;-72
2022/05/18 01:04:42;;;;;;;2.55;0.70;;;21.00;60.90;;;;;;5111065;28;20044;-69
2022/05/18 01:07:13;;;;;;;1.42;0.75;;;21.00;60.90;;;;;;5111083;28;20039;-74
2022/05/18 01:09:42;;;;;;;1.52;0.52;;;21.00;60.90;;;;;;5111699;28;20075;-74
2022/05/18 01:12:11;;;;;;;1.55;0.80;;;21.00;60.90;;;;;;5110385;28;20039;-72
2022/05/18 01:15:02;;;;;;;2.33;0.75;;;21.00;60.90;;;;;;5111947;28;20051;-72
2022/05/18 01:17:31;;;;;;;1.42;0.55;;;21.00;60.90;;;;;;5110392;28;20040;-73
2022/05/18 01:20:00;;;;;;;3.63;1.15;;;21.00;60.90;;;;;;5112150;28;20380;-72
2022/05/18 01:25:39;;;;;;;1.77;0.50;;;21.00;60.90;;;;;;5150105;27;20118;-72
2022/05/18 01:28:06;;;;;;;1.27;0.70;;;20.90;60.90;;;;;;5128419;28;20478;-72
2022/05/18 01:30:33;;;;;;;2.42;0.73;;;20.90;60.90;;;;;;5127977;28;20518;-72
2022/05/18 01:33:03;;;;;;;1.58;0.70;;;20.90;60.90;;;;;;5128126;28;20156;-67
2022/05/18 01:35:31;;;;;;;2.13;0.68;;;20.90;60.90;;;;;;5128184;28;20046;-72
2022/05/18 01:37:57;;;;;;;1.70;0.80;;;20.90;60.90;;;;;;5128235;28;20126;-73
2022/05/18 01:40:32;;;;;;;2.65;1.17;;;20.90;60.90;;;;;;5128177;28;20065;-73
2022/05/18 01:45:50;;;;;;;2.97;0.90;;;20.90;60.90;;;;;;5152224;27;1156576;-72
2022/05/18 01:48:18;;;;;;;2.42;0.70;;;20.90;61.10;;;;;;5152566;27;20129;-66
2022/05/18 01:50:44;;;;;;;1.23;0.60;;;20.80;60.90;;;;;;5152666;27;20038;-72
2022/05/18 01:53:10;;;;;;;2.20;0.93;;;20.80;60.90;;;;;;5152272;27;20430;-72
2022/05/18 01:55:37;;;;;;;2.10;0.82;;;20.80;61.00;;;;;;5152095;27;20469;-72
2022/05/18 01:58:05;;;;;;;3.10;0.80;;;20.80;60.90;;;;;;5152274;27;20481;-72
2022/05/18 02:00:31;;;;;;;1.90;0.90;;;20.80;61.00;;;;;;5152226;27;20066;-71
2022/05/18 02:03:00;;;;;;;1.20;0.47;;;20.80;61.00;;;;;;5170743;27;20509;-74
2022/05/18 02:05:26;;;;;;;3.20;0.90;;;20.80;61.00;;;;;;5151996;27;20080;-71
2022/05/18 02:07:53;;;;;;;1.58;0.98;;;20.80;61.00;;;;;;5152361;27;20035;-72
2022/05/18 02:10:18;;;;;;;1.70;0.65;;;20.80;61.00;;;;;;5151812;27;20046;-72
2022/05/18 02:12:44;;;;;;;1.85;0.90;;;20.70;61.00;;;;;;5170290;27;20030;-73
2022/05/18 02:15:10;;;;;;;2.67;0.93;;;20.70;61.00;;;;;;5151762;27;20042;-73
2022/05/18 02:17:37;;;;;;;1.23;0.50;;;20.70;61.00;;;;;;5151735;27;20042;-73
2022/05/18 02:20:03;;;;;;;1.52;0.75;;;20.80;61.10;;;;;;5151676;27;20045;-72
2022/05/18 02:22:29;;;;;;;1.35;0.90;;;20.70;61.00;;;;;;5134657;27;20050;-72
2022/05/18 02:24:58;;;;;;;1.95;0.77;;;20.70;61.00;;;;;;5151900;27;20489;-72
2022/05/18 02:27:23;;;;;;;2.25;0.65;;;20.70;61.00;;;;;;5152198;27;20473;-72
2022/05/18 02:29:50;;;;;;;3.13;0.68;;;20.70;61.00;;;;;;5151560;27;20049;-72
2022/05/18 02:32:19;;;;;;;0.82;0.50;;;20.70;61.10;;;;;;5151264;27;20132;-72
2022/05/18 02:34:44;;;;;;;1.55;0.80;;;20.70;61.10;;;;;;5151530;27;20498;-74
2022/05/18 02:37:10;;;;;;;1.95;0.75;;;20.60;60.90;;;;;;5151526;27;20082;-69
2022/05/18 02:39:36;;;;;;;2.75;0.88;;;20.60;61.00;;;;;;5169969;27;20031;-72
2022/05/18 02:42:01;;;;;;;2.15;0.82;;;20.60;61.30;;;;;;5151521;27;20389;-71
2022/05/18 02:44:27;;;;;;;2.97;0.80;;;20.60;61.00;;;;;;5169555;27;20061;-72
2022/05/18 02:46:57;;;;;;;1.27;0.60;;;20.60;61.00;;;;;;5151311;27;20054;-72
2022/05/18 02:49:24;;;;;;;1.30;0.63;;;20.60;61.00;;;;;;5151437;27;20034;-72
2022/05/18 02:51:52;;;;;;;2.45;1.10;;;20.60;61.10;;;;;;5150866;27;20039;-73
2022/05/18 02:57:06;;;;;;;1.77;0.60;;;20.60;61.10;;;;;;5137362;27;20080;-72
2022/05/18 02:59:32;;;;;;;2.10;0.60;;;20.60;61.10;;;;;;5137221;27;20494;-74
2022/05/18 03:01:59;;;;;;;2.15;0.93;;;20.50;61.00;;;;;;5155676;27;20042;-75
2022/05/18 03:04:26;;;;;;;1.35;0.50;;;20.60;61.10;;;;;;5155427;27;20107;-72
2022/05/18 03:06:52;;;;;;;1.70;0.75;;;20.60;61.10;;;;;;5137003;27;20045;-72
2022/05/18 03:09:18;;;;;;;3.25;0.65;;;20.50;61.00;;;;;;5155807;27;20039;-74
2022/05/18 03:11:46;;;;;;;1.25;0.77;;;20.50;60.90;;;;;;5136698;27;20423;-73
2022/05/18 03:14:12;;;;;;;2.30;0.60;;;20.50;60.90;;;;;;5136692;27;20088;-73
2022/05/18 03:16:39;;;;;;;1.23;0.77;;;20.50;60.90;;;;;;5136562;27;20070;-72
2022/05/18 03:19:04;;;;;;;1.67;0.80;;;20.50;60.90;;;;;;5155435;27;20039;-65
2022/05/18 03:24:15;;;;;;;2.08;0.77;;;20.50;60.90;;;;;;5136569;27;20046;-71
2022/05/18 03:26:42;;;;;;;1.38;0.68;;;20.50;60.90;;;;;;5136810;27;20050;-69
2022/05/18 03:29:08;;;;;;;1.52;0.55;;;20.50;60.90;;;;;;5136869;27;20119;-71
2022/05/18 03:31:33;;;;;;;1.50;0.80;;;20.50;60.90;;;;;;5154717;27;20112;-73
2022/05/18 03:33:59;;;;;;;1.45;0.70;;;20.50;60.80;;;;;;5136205;27;20043;-72
2022/05/18 03:36:26;;;;;;;0.95;0.60;;;20.50;60.90;;;;;;5154818;27;20281;-71
2022/05/18 03:38:52;;;;;;;1.30;0.70;;;20.40;60.80;;;;;;5136758;27;20042;-68
2022/05/18 03:41:18;;;;;;;3.35;1.20;;;20.40;60.80;;;;;;5136590;27;20045;-71
2022/05/18 03:43:45;;;;;;;1.00;0.57;;;20.40;60.80;;;;;;5136278;27;20500;-72
2022/05/18 03:46:11;;;;;;;1.88;0.82;;;20.40;60.80;;;;;;5136466;27;20058;-66
2022/05/18 03:48:38;;;;;;;1.38;0.60;;;20.40;60.80;;;;;;5136799;27;20031;-72
2022/05/18 03:51:05;;;;;;;1.80;0.50;;;20.40;60.70;;;;;;5136064;27;20053;-71
2022/05/18 03:53:32;;;;;;;1.42;0.63;;;20.40;60.70;;;;;;5136196;27;20042;-72
2022/05/18 03:55:58;;;;;;;1.33;0.60;;;20.40;60.70;;;;;;5154350;27;20496;-71
2022/05/18 03:58:24;;;;;;;2.30;0.80;;;20.30;60.70;;;;;;5136113;27;20070;-72
2022/05/18 04:00:52;;;;;;;1.00;0.60;;;20.30;60.60;;;;;;5154649;27;20077;-66
2022/05/18 04:03:19;;;;;;;1.65;0.73;;;20.30;60.60;;;;;;5136025;27;20527;-66
2022/05/18 04:05:48;;;;;;;1.40;0.77;;;20.30;60.70;;;;;;5135858;27;20050;-72
2022/05/18 04:08:13;;;;;;;1.23;0.60;;;20.30;60.70;;;;;;5153580;27;20034;-72
2022/05/18 04:10:42;;;;;;;1.77;0.70;;;20.30;60.60;;;;;;5135694;27;20545;-72
2022/05/18 04:13:13;;;;;;;2.92;0.47;;;20.30;60.70;;;;;;5135615;27;20038;-73
2022/05/18 04:15:40;;;;;;;1.00;0.52;;;20.30;60.70;;;;;;5154201;27;20042;-73
2022/05/18 04:18:06;;;;;;;0.80;0.47;;;20.30;60.60;;;;;;5135660;27;20129;-72
2022/05/18 04:20:32;;;;;;;1.67;0.55;;;20.30;60.60;;;;;;5135566;27;20450;-72
2022/05/18 04:22:58;;;;;;;1.15;0.70;;;20.20;60.50;;;;;;5135888;27;20049;-72
2022/05/18 04:25:26;;;;;;;1.48;0.65;;;20.30;60.50;;;;;;5154131;27;20420;-73
2022/05/18 04:27:53;;;;;;;1.00;0.50;;;20.20;60.50;;;;;;5154151;27;20104;-72
2022/05/18 04:30:21;;;;;;;1.13;0.50;;;20.30;60.50;;;;;;5135443;27;20049;-75
2022/05/18 04:32:53;;;;;;;1.23;0.60;;;20.20;60.50;;;;;;5135292;27;20034;-73
2022/05/18 04:35:22;;;;;;;1.10;0.47;;;20.30;60.50;;;;;;5154194;27;20390;-73
2022/05/18 04:37:48;;;;;;;1.05;0.57;;;20.20;60.50;;;;;;5153820;27;20127;-72
2022/05/18 04:40:14;;;;;;;1.00;0.70;;;20.20;60.40;;;;;;5135386;27;20082;-73
2022/05/18 04:42:40;;;;;;;2.03;0.70;;;20.20;60.40;;;;;;5153522;27;20509;-72
2022/05/18 04:45:09;;;;;;;1.73;0.73;;;20.20;60.50;;;;;;5153339;27;20053;-67
2022/05/18 04:47:35;;;;;;;1.17;0.88;;;20.20;60.40;;;;;;5153724;27;20035;-72
2022/05/18 04:50:01;;;;;;;1.80;0.60;;;20.20;60.50;;;;;;5135325;27;20045;-65
2022/05/18 04:52:26;;;;;;;1.20;0.63;;;20.20;60.40;;;;;;5153206;27;20046;-73
2022/05/18 04:54:52;;;;;;;1.10;0.80;;;20.20;60.40;;;;;;5134739;27;20039;-71
2022/05/18 04:57:18;;;;;;;0.93;0.52;;;20.20;60.50;;;;;;5153350;27;20031;-72
2022/05/18 04:59:45;;;;;;;2.08;0.70;;;20.20;60.50;;;;;;5135178;27;20041;-74
2022/05/18 05:02:15;;;;;;;0.98;0.50;;;20.20;60.50;;;;;;5134712;27;20042;-65
2022/05/18 05:04:41;;;;;;;1.27;0.60;;;20.20;60.50;;;;;;5153436;27;20046;-73
2022/05/18 05:07:07;;;;;;;0.95;0.52;;;20.20;60.50;;;;;;5134555;27;20308;-69
2022/05/18 05:09:37;;;;;;;1.15;0.95;;;20.20;60.50;;;;;;5153419;27;20074;-72
2022/05/18 05:12:04;;;;;;;0.88;0.55;;;20.20;60.50;;;;;;5153035;27;20081;-72
2022/05/18 05:14:29;;;;;;;1.20;0.80;;;20.30;60.50;;;;;;5117260;27;20057;-72
2022/05/18 05:16:55;;;;;;;1.80;0.60;;;20.30;60.50;;;;;;5152797;27;20043;-71
2022/05/18 05:19:20;;;;;;;1.38;0.80;;;20.20;60.50;;;;;;5152914;27;20545;-73
2022/05/18 05:21:46;;;;;;;2.78;0.63;;;20.20;60.50;;;;;;5154577;27;20042;-71
2022/05/18 05:24:13;;;;;;;1.35;0.70;;;20.30;60.60;;;;;;5135215;27;20406;-72
2022/05/18 05:26:41;;;;;;;2.13;1.00;;;20.30;60.60;;;;;;5134776;27;20038;-72
2022/05/18 05:29:10;;;;;;;0.95;0.55;;;20.30;60.60;;;;;;5134710;27;20039;-72
2022/05/18 05:31:37;;;;;;;1.90;0.68;;;20.20;60.50;;;;;;5134108;27;20038;-65
2022/05/18 05:34:03;;;;;;;1.50;0.93;;;20.30;60.60;;;;;;5134095;27;20045;-71
2022/05/18 05:36:29;;;;;;;1.20;0.77;;;20.30;60.50;;;;;;5151946;27;20094;-70
2022/05/18 05:38:55;;;;;;;2.90;1.00;;;20.30;60.60;;;;;;5139678;27;20038;-72
2022/05/18 05:41:21;;;;;;;2.38;0.60;;;20.30;60.50;;;;;;5157690;27;20549;-73
2022/05/18 05:43:46;;;;;;;1.50;0.85;;;20.30;60.70;;;;;;5139772;27;20046;-74
2022/05/18 05:46:13;;;;;;;1.63;0.63;;;20.40;60.70;;;;;;5137706;27;20076;-75
2022/05/18 05:48:41;;;;;;;2.50;0.60;;;20.40;60.80;;;;;;5138363;27;20041;-71
2022/05/18 05:51:12;;;;;;;1.83;0.80;;;20.40;60.60;;;;;;5144059;27;20473;-75
2022/05/18 05:53:41;;;;;;;;;;;20.50;60.60;;;;;;5149330;27;20054;-75
2022/05/18 05:56:08;;;;;;;2.70;0.60;;;20.50;60.70;;;;;;5147632;27;19937;-75
2022/05/18 05:58:36;;;;;;;1.27;0.68;;;20.50;60.50;;;;;;5140888;27;20440;-74
2022/05/18 06:01:04;;;;;;;1.67;0.70;;;20.50;60.50;;;;;;5134170;27;20043;-75
2022/05/18 06:03:30;;;;;;;1.52;0.60;;;20.50;60.60;;;;;;5164880;27;20058;-75
2022/05/18 06:05:56;;;;;;;2.47;0.68;;;20.60;60.50;;;;;;5123744;27;20106;-75
2022/05/18 06:08:22;;;;;;;3.30;0.80;;;20.60;60.60;;;;;;5115055;27;20050;-66
2022/05/18 06:10:48;;;;;;;1.88;0.70;;;20.60;60.60;;;;;;5145748;27;20043;-72
2022/05/18 06:13:14;;;;;;;2.88;1.45;;;20.60;60.60;;;;;;5146544;27;20030;-76
2022/05/18 06:15:40;;;;;;;2.88;1.17;;;20.60;60.60;;;;;;5142648;27;20042;-71
2022/05/18 06:18:09;;;;;;;2.90;1.23;;;20.60;60.70;;;;;;5128913;27;20099;-68
2022/05/18 06:20:34;;;;;;;2.80;1.40;;;20.70;61.10;;;;;;5113664;27;20046;-71
2022/05/18 06:23:06;;;;;;;2.90;1.55;;;20.70;61.20;;;;;;5106537;27;20035;-71
2022/05/18 06:25:38;;;;;;;4.55;1.52;;;20.70;61.40;;;;;;5094815;27;20051;-70
2022/05/18 06:28:06;;;;;;;2.05;1.40;;;20.70;61.60;;;;;;5122468;27;20060;-70
2022/05/18 06:30:32;;;;;;;3.33;2.22;;;20.80;61.70;;;;;;5122384;27;20047;-71
2022/05/18 06:33:00;;;;;;;5.20;2.25;;;20.80;61.80;;;;;;5122036;27;20038;-70
2022/05/18 06:35:26;;;;;;;4.10;2.17;;;20.80;61.90;;;;;;5129942;27;20047;-70
2022/05/18 06:37:51;;;;;;;4.68;1.80;;;20.90;62.00;;;;;;5109992;27;20587;-74
2022/05/18 06:40:18;;;;;;;4.18;2.55;;;20.90;62.00;;;;;;5121021;27;20043;-73
2022/05/18 06:42:44;;;;;;;2.90;1.90;;;20.90;62.20;;;;;;5121987;27;20047;-72
2022/05/18 06:45:13;;;;;;;3.38;2.03;;;20.90;61.60;;;;;;5132427;27;20050;-72
2022/05/18 06:47:39;;;;;;;2.65;1.80;;;21.00;61.50;;;;;;5117360;27;20031;-73
2022/05/18 06:50:09;;;;;;;4.30;1.75;;;21.00;61.40;;;;;;5118392;27;20035;-68
2022/05/18 06:52:35;;;;;;;5.05;1.90;;;21.10;61.50;;;;;;5114135;27;20107;-66
2022/05/18 06:55:01;;;;;;;2.42;1.77;;;21.10;61.80;;;;;;5122116;27;20042;-70
2022/05/18 06:57:26;;;;;;;6.70;2.10;;;21.10;62.00;;;;;;5114213;27;20696;-67
2022/05/18 06:59:55;;;;;;;4.85;1.88;;;21.20;62.30;;;;;;5123206;27;20050;-69
2022/05/18 07:02:20;;;;;;;3.55;1.70;;;21.20;62.30;;;;;;5132488;27;20259;-70
2022/05/18 07:04:46;;;;;;;2.58;1.98;;;21.20;62.20;;;;;;5117185;27;20738;-69
2022/05/18 07:07:12;;;;;;;3.75;1.80;;;21.20;62.30;;;;;;5131209;27;20031;-70
2022/05/18 07:09:37;;;;;;;3.60;1.90;;;21.30;62.30;;;;;;5111945;27;20062;-73
2022/05/18 07:12:06;;;;;;;3.75;2.13;;;21.30;62.30;;;;;;5116821;27;20050;-72
2022/05/18 07:14:33;;;;;;;4.78;2.38;;;21.40;62.40;;;;;;5117781;27;20077;-75
2022/05/18 07:16:59;;;;;;;3.63;1.95;;;21.40;62.30;;;;;;5113198;27;20218;-71
2022/05/18 07:19:25;;;;;;;4.72;2.55;;;21.40;62.30;;;;;;5132494;27;20043;-73
2022/05/18 07:21:50;;;;;;;4.40;2.15;;;21.50;62.20;;;;;;5132631;27;20504;-72
2022/05/18 07:24:17;;;;;;;4.65;2.30;;;21.50;62.30;;;;;;5131494;27;20073;-74
2022/05/18 07:26:44;;;;;;;3.45;2.10;;;21.50;62.40;;;;;;5129299;27;20533;-74
2022/05/18 07:29:10;;;;;;;4.03;1.95;;;21.60;63.20;;;;;;5128664;27;20055;-76
2022/05/18 07:34:22;;;;;;;6.22;2.22;;;21.60;62.50;;;;;;5128960;27;20051;-72
2022/05/18 07:36:51;;;;;;;6.45;2.30;;;21.70;62.50;;;;;;5129370;27;20095;-74
2022/05/18 07:39:17;;;;;;;5.03;1.98;;;21.70;62.60;;;;;;5113135;27;22860;-74
2022/05/18 07:41:43;;;;;;;8.40;2.65;;;21.70;62.50;;;;;;5130882;27;20049;-74
2022/05/18 07:44:09;;;;;;;4.38;2.30;;;21.80;62.50;;;;;;5117233;27;20066;-73
2022/05/18 07:46:35;;;;;;;6.93;2.25;;;21.80;62.60;;;;;;5110809;27;20113;-74
2022/05/18 07:49:05;;;;;;;4.88;2.17;;;21.80;62.30;;;;;;5110652;27;20035;-76
2022/05/18 07:51:31;;;;;;;11.88;3.25;;;21.90;62.10;;;;;;5108473;27;20032;-76
2022/05/18 07:53:57;;;;;;;9.38;2.35;;;21.90;62.10;;;;;;5109749;27;20063;-73
2022/05/18 07:56:22;;;;;;;4.32;2.20;;;21.90;62.80;;;;;;5117543;27;20067;-74
2022/05/18 07:58:48;;;;;;;11.35;2.70;;;21.90;62.00;;;;;;5113326;27;20043;-75
2022/05/18 08:01:13;;;;;;;6.22;2.40;;;22.00;61.80;;;;;;5111846;27;20027;-77
2022/05/18 08:03:39;;;;;;;4.25;1.75;;;22.10;61.70;;;;;;5110540;27;20047;-75
2022/05/18 08:06:05;;;;;;;4.22;2.30;;;22.10;61.60;;;;;;5111570;27;20047;-68
2022/05/18 08:08:31;;;;;;;5.95;2.08;;;22.10;61.40;;;;;;5109553;27;20031;-71
2022/05/18 08:16:30;;;;;;;6.32;1.52;;;22.30;61.20;;;;;;5111414;27;20063;-70
2022/05/18 08:18:57;;;;;;;7.55;2.10;;;22.30;60.90;;;;;;5112908;27;20780;-71
2022/05/18 08:21:23;;;;;;;4.72;1.73;;;22.30;61.10;;;;;;5109816;27;20127;-71
2022/05/18 08:23:49;;;;;;;2.70;1.45;;;22.40;61.20;;;;;;5113003;27;20046;-71
2022/05/18 08:26:18;;;;;;;4.93;1.60;;;22.50;61.40;;;;;;5113924;27;20036;-70
2022/05/18 08:28:47;;;;;;;5.43;1.52;;;22.50;61.30;;;;;;5114734;27;20064;-71
2022/05/18 08:31:17;;;;;;;3.97;1.35;;;22.50;61.10;;;;;;5113647;27;20083;-70
2022/05/18 08:33:44;;;;;;;4.70;1.55;;;22.70;61.20;;;;;;5089293;27;20043;-73
2022/05/18 08:36:09;;;;;;;8.40;1.40;;;22.70;61.20;;;;;;5092589;27;20260;-75
2022/05/18 08:38:36;;;;;;;6.25;1.77;;;22.70;61.10;;;;;;5102871;27;20593;-74
2022/05/18 08:41:14;;;;;;;4.20;1.45;;;22.80;61.10;;;;;;5116981;27;20185;-77
2022/05/18 08:43:44;;;;;;;4.47;1.35;;;22.80;61.20;;;;;;5107024;27;20104;-72
2022/05/18 08:56:52;;;;;;;5.47;2.13;;;22.80;60.90;;;;;;5060093;28;21099;-72
2022/05/18 08:59:30;;;;;;;2.50;1.70;;;23.60;59.30;;;;;;5060175;28;20055;-72
2022/05/18 09:01:58;;;;;;;5.38;1.90;;;23.80;58.80;;;;;;5046423;28;20033;-72
2022/05/18 09:04:49;;;;;;;2.28;1.40;;;23.90;58.20;;;;;;5044493;28;20048;-72
2022/05/18 09:07:19;;;;;;;5.55;1.77;;;24.10;57.70;;;;;;5047905;28;20047;-72
2022/05/18 09:10:24;;;;;;;;;;;24.20;57.30;;;;;;5061168;28;20048;-74
2022/05/18 09:12:41;;;;;;;3.45;1.70;;;24.30;57.20;;;;;;5046792;28;19996;-70
2022/05/18 09:15:13;;;;;;;7.35;1.40;;;24.50;56.60;;;;;;5044380;28;20049;-72
2022/05/18 09:17:59;;;;;;;2.67;1.60;;;24.60;56.30;;;;;;5062481;28;20056;-71
2022/05/18 09:23:26;;;;;;;4.88;1.70;;;24.60;56.10;;;;;;5118456;27;1177501;-71
2022/05/18 09:26:24;;;;;;;5.53;2.05;;;24.70;55.70;;;;;;5127586;27;20745;-70
2022/05/18 09:28:53;;;;;;;7.38;1.63;;;24.80;55.70;;;;;;5146138;27;20453;-73
2022/05/18 09:43:10;;;;;;;4.82;1.80;;;24.90;55.30;;;;;;5085158;27;20494;-69
2022/05/18 09:45:39;;;;;;;4.10;1.33;;;24.90;55.40;;;;;;5069105;28;20056;-73
2022/05/18 09:48:11;;;;;;;3.35;1.20;;;25.00;55.70;;;;;;5060540;28;20127;-73
2022/05/18 09:50:39;;;;;;;4.45;1.92;;;25.00;55.70;;;;;;5078819;28;20056;-71
2022/05/18 09:53:05;;;;;;;5.82;2.22;;;25.10;55.60;;;;;;5057787;28;20134;-70
2022/05/18 09:55:31;;;;;;;3.88;1.50;;;25.10;55.50;;;;;;5057934;28;20213;-69
2022/05/18 09:58:03;;;;;;;4.10;1.95;;;25.10;55.40;;;;;;5067966;28;20040;-70
2022/05/18 10:00:32;;;;;;;5.32;2.72;;;25.10;55.30;;;;;;5061839;28;20059;-74
2022/05/18 10:08:58;;;;;;;7.00;5.05;;;25.10;55.50;;;;;;5050429;28;20068;-73
2022/05/18 10:11:29;;;;;;;8.55;3.90;;;25.20;55.20;;;;;;5051252;28;20048;-73
2022/05/18 10:14:06;;;;;;;8.55;5.38;;;25.20;55.20;;;;;;5050311;28;20079;-73
2022/05/18 10:19:22;;;;;;;6.97;3.22;;;25.20;54.90;;;;;;5066052;27;21193;-72
2022/05/18 10:21:52;;;;;;;4.35;3.50;;;25.30;55.10;;;;;;5032661;28;20068;-72
2022/05/18 10:32:36;;;;;;;3.90;2.85;;;25.10;55.10;;;;;;5108217;27;1184858;-70
2022/05/18 10:35:06;;;;;;;8.52;4.63;;;24.90;55.20;;;;;;5119638;27;20043;-71
2022/05/18 10:40:19;;;;;;;7.32;6.18;;;24.90;55.30;;;;;;5099253;27;20468;-72
2022/05/18 10:43:25;;;;;;;9.73;5.93;;;24.90;55.40;;;;;;5095235;28;20044;-72
2022/05/18 10:45:56;;;;;;;6.07;4.78;;;25.00;55.40;;;;;;5125565;27;20035;-70
2022/05/18 10:48:23;;;;;;;5.90;4.70;;;25.00;55.20;;;;;;5120994;28;20055;-71
2022/05/18 10:51:00;;;;;;;5.90;4.53;;;25.10;55.30;;;;;;5097592;28;20523;-70
2022/05/18 10:53:33;;;;;;;4.50;3.92;;;25.00;55.30;;;;;;5114682;28;20065;-70
2022/05/18 11:04:07;;;;;;;10.57;7.22;;;25.00;55.40;;;;;;5103465;27;20296;-69
2022/05/18 11:06:37;;;;;;;9.45;7.85;;;25.00;55.40;;;;;;5101695;28;20040;-70
2022/05/18 11:09:09;;;;;;;9.98;7.28;;;25.00;54.80;;;;;;5100653;28;20051;-72
2022/05/18 11:28:40;;;;;;;7.07;5.07;;;24.90;55.50;;;;;;5107751;27;20769;-72
2022/05/18 11:42:34;;;;;;;8.13;5.93;;;24.90;56.00;;;;;;5064194;28;20385;-71
2022/05/18 11:59:31;;;;;;;8.52;4.05;;;25.10;56.20;;;;;;5112977;27;20419;-71
2022/05/18 12:05:15;;;;;;;8.32;5.05;;;25.20;56.00;;;;;;5133435;27;1170925;-70
2022/05/18 12:10:41;;;;;;;7.97;7.18;;;25.20;55.80;;;;;;5103425;27;20047;-69
2022/05/18 12:13:20;;;;;;;9.20;6.27;;;25.20;55.90;;;;;;5135259;27;20101;-70
2022/05/18 12:16:12;;;;;;;6.13;5.18;;;25.20;55.80;;;;;;5102230;28;20691;-70
2022/05/18 12:18:42;;;;;;;9.57;6.43;;;25.30;55.70;;;;;;5129612;27;20067;-70
2022/05/18 12:21:15;;;;;;;9.20;7.50;;;25.30;55.60;;;;;;5099860;28;20058;-69
2022/05/18 12:23:50;;;;;;;4.47;4.07;;;25.30;55.60;;;;;;5104630;28;20040;-68
2022/05/18 12:26:17;;;;;;;8.63;4.22;;;25.30;55.40;;;;;;5101457;28;20177;-69
2022/05/18 12:28:44;;;;;;;4.63;3.63;;;25.40;55.50;;;;;;5103295;28;20044;-68
2022/05/18 12:31:11;;;;;;;7.28;6.40;;;25.40;55.50;;;;;;5100113;28;20055;-72
2022/05/18 12:33:46;;;;;;;9.07;7.28;;;25.40;55.50;;;;;;5098732;28;20090;-75
2022/05/18 12:36:23;;;;;;;8.38;6.05;;;25.40;55.50;;;;;;5132493;27;20122;-77
2022/05/18 12:39:17;;;;;;;7.32;4.93;;;25.40;55.40;;;;;;5096064;28;20140;-75
2022/05/18 12:41:45;;;;;;;4.60;4.00;;;25.50;55.50;;;;;;5098881;28;20043;-74
2022/05/18 12:47:16;;;;;;;8.07;5.32;;;25.50;55.50;;;;;;5116643;27;20439;-77
2022/05/18 12:49:44;;;;;;;6.20;3.58;;;25.60;55.60;;;;;;5108033;27;20399;-76
2022/05/18 13:17:50;;;;;;;4.78;2.90;;;25.50;56.30;;;;;;5188993;27;20097;-73
2022/05/18 13:23:34;;;;;;;6.63;3.53;;;25.50;56.50;;;;;;5125951;27;20391;-71
2022/05/18 13:26:23;;;;;;;3.05;2.67;;;25.50;56.50;;;;;;5130483;27;20434;-71
2022/05/18 13:28:53;;;;;;;8.23;2.90;;;25.40;56.40;;;;;;5116853;28;20414;-73
2022/05/18 13:31:22;;;;;;;4.75;2.75;;;25.40;56.50;;;;;;5112519;28;20044;-74
2022/05/18 13:40:14;;;;;;;4.63;2.55;;;25.40;56.70;;;;;;5117434;27;20730;-72
2022/05/18 13:42:43;;;;;;;4.72;2.33;;;25.40;56.80;;;;;;5116125;28;20085;-69
2022/05/18 13:45:12;;;;;;;2.67;2.05;;;25.40;57.10;;;;;;5106894;28;20479;-73
2022/05/18 13:47:45;;;;;;;5.93;1.88;;;25.50;57.30;;;;;;5100254;28;20050;-74
2022/05/18 13:50:36;;;;;;;5.03;2.38;;;25.50;57.40;;;;;;5109315;28;20071;-72
2022/05/18 13:53:06;;;;;;;3.95;2.38;;;25.50;57.50;;;;;;5125755;28;20559;-76
2022/05/18 13:55:40;;;;;;;4.18;2.47;;;25.50;57.50;;;;;;5118196;28;20048;-77
2022/05/18 13:58:08;;;;;;;3.40;3.10;;;25.50;57.60;;;;;;5105797;28;20391;-75
2022/05/18 14:00:41;;;;;;;6.90;3.40;;;25.50;57.60;;;;;;5107972;28;20036;-76
2022/05/18 14:03:10;;;;;;;5.47;2.63;;;25.60;57.60;;;;;;5105143;28;20046;-72
2022/05/18 14:05:36;;;;;;;5.78;2.92;;;25.60;57.50;;;;;;5086575;28;20439;-72
2022/05/18 14:08:31;;;;;;;2.92;2.58;;;25.70;57.60;;;;;;5086445;28;20040;-73
2022/05/18 14:10:59;;;;;;;7.90;2.30;;;25.70;57.60;;;;;;5085956;28;20047;-72
2022/05/18 14:13:25;;;;;;;3.85;2.60;;;25.60;57.60;;;;;;5096054;28;20028;-73
2022/05/18 14:15:52;;;;;;;3.47;1.75;;;25.60;57.60;;;;;;5117391;28;20064;-71
2022/05/18 14:18:24;;;;;;;3.67;2.13;;;25.60;57.60;;;;;;5126472;27;20044;-71
2022/05/18 14:20:53;;;;;;;3.15;2.03;;;25.70;57.70;;;;;;5112535;28;20032;-72
2022/05/18 14:23:28;;;;;;;5.72;2.40;;;25.70;57.70;;;;;;5106922;28;20051;-72
2022/05/18 14:26:00;;;;;;;3.45;1.58;;;25.70;57.70;;;;;;5108705;28;20472;-76
2022/05/18 14:28:30;;;;;;;4.22;1.80;;;25.70;57.60;;;;;;5112208;28;20431;-72
2022/05/18 14:31:03;;;;;;;6.05;1.60;;;25.70;57.40;;;;;;5103913;28;20116;-74
2022/05/18 14:36:31;;;;;;;2.95;1.25;;;25.70;57.50;;;;;;5127792;27;20346;-75
2022/05/18 14:39:01;;;;;;;4.63;1.85;;;25.80;57.70;;;;;;5111731;28;20042;-75
2022/05/18 14:41:30;;;;;;;6.78;1.50;;;25.80;57.30;;;;;;5115472;28;20482;-71
2022/05/18 14:43:59;;;;;;;2.55;1.90;;;25.80;57.10;;;;;;5114808;28;20039;-76
2022/05/18 14:46:30;;;;;;;7.20;1.15;;;25.80;57.30;;;;;;5105819;28;20367;-76
2022/05/18 14:51:46;;;;;;;5.75;1.70;;;25.80;57.00;;;;;;5148387;27;1203994;-76
2022/05/18 14:54:30;;;;;;;2.65;1.40;;;25.60;57.10;;;;;;5169846;27;20035;-77
2022/05/18 14:57:04;;;;;;;1.77;0.93;;;25.60;57.20;;;;;;5149211;27;20026;-78
2022/05/18 14:59:35;;;;;;;4.05;1.30;;;25.60;57.30;;;;;;5150706;27;20105;-77
2022/05/18 15:02:05;;;;;;;2.53;1.42;;;25.60;57.50;;;;;;5147006;27;20046;-78
2022/05/18 15:04:39;;;;;;;6.00;1.55;;;25.60;57.40;;;;;;5147579;27;20043;-74
2022/05/18 15:07:10;;;;;;;3.88;1.00;;;25.60;57.40;;;;;;5147601;27;20081;-75
2022/05/18 15:09:40;;;;;;;2.05;1.00;;;25.60;57.40;;;;;;5164761;27;20125;-77
2022/05/18 15:12:12;;;;;;;2.25;0.88;;;25.50;57.50;;;;;;5150612;27;20070;-76
2022/05/18 15:17:26;;;;;;;1.95;1.00;;;25.50;57.30;;;;;;5128392;27;20390;-76
2022/05/18 15:20:04;;;;;;;4.20;0.70;;;25.50;57.30;;;;;;5126290;28;20042;-77
2022/05/18 15:22:34;;;;;;;3.83;1.10;;;25.50;57.30;;;;;;5126260;28;20070;-76
2022/05/18 15:31:09;;;;;;;1.38;0.90;;;25.40;57.10;;;;;;5107581;27;20471;-76
2022/05/18 15:33:47;;;;;;;2.72;0.60;;;25.40;57.40;;;;;;5089566;28;20053;-73
2022/05/18 15:36:13;;;;;;;4.68;0.88;;;25.40;57.40;;;;;;5090519;28;20485;-77
2022/05/18 15:38:41;;;;;;;1.80;0.70;;;25.50;57.40;;;;;;5089655;28;20039;-73
2022/05/18 15:41:07;;;;;;;5.93;1.17;;;25.40;57.20;;;;;;5088915;28;20105;-76
2022/05/18 15:43:33;;;;;;;3.40;0.50;;;25.50;57.30;;;;;;5089274;28;20554;-77
2022/05/18 15:46:01;;;;;;;1.77;0.63;;;25.50;57.30;;;;;;5089572;28;20119;-74
2022/05/18 15:48:29;;;;;;;3.67;0.68;;;25.50;57.40;;;;;;5088879;28;20491;-71
2022/05/18 15:50:58;;;;;;;2.75;0.80;;;25.50;57.20;;;;;;5088397;28;20393;-72